Tropical Cyclones
[Index]
Main Index Home Page Stock Weather Photos Extreme Storms Discussion Storm News and Storm Chasing Reports Tropical Cyclones / Hurricanes / Typhoons Weather Data and Links Wild Fires / Bushfires Weather Observation Techniques Weather Picture Catalogue Tornado Pictures and Reports Stock Video Footage and DVDs for sale
Season 2005-2006 Tropical Cyclone MONICA Track Map
Season 2005-2006 Summaries: [BoM-AU] [JTWC-AU] [JTWC-SIO] [JTWC-SPAC] [JTWC-SH]
<<- Previous TC | JTWC 2005-2006 Season | Next TC ->>

click for intensity scale information  Lat/long Grid: Show Hide

 Date Labels: Show Hide

Joint Typhoon Warning Centre Cyclone Data

Name: MONICA

16 Apr 2006 18:00 UTC to 26 Apr 2006 18:00 UTC

    date/time    lat    long     hPa   cat  kts
2006-04-16 18   11.1   150.8    1004         25          
2006-04-17 00   11.7   150.1    1000         30          
2006-04-17 06   12.5   149.7     994    1    40          
2006-04-17 12   12.9   149.1     991    1    45          
2006-04-17 18   13.0   148.4     987    1    50          
2006-04-17 18   13.0   148.4     987    1    50          
2006-04-18 00   13.0   147.5     987    1    50          
2006-04-18 00   13.0   147.5     987    1    50          
2006-04-18 06   13.0   146.6     984    2    55          
2006-04-18 06   13.0   146.6     984    2    55          
2006-04-18 12   13.0   145.7     980    2    60          
2006-04-18 12   13.0   145.7     980    2    60          
2006-04-18 18   12.8   144.9     972    2    70          
2006-04-18 18   12.8   144.9     972    2    70          
2006-04-18 18   12.8   144.9     972    2    70          
2006-04-19 00   12.9   144.1     956    3    90          
2006-04-19 00   12.9   144.1     956    3    90          
2006-04-19 00   12.9   144.1     956    3    90          
2006-04-19 06   13.3   143.4     959    3    85          
2006-04-19 06   13.3   143.4     959    3    85          
2006-04-19 06   13.3   143.4     959    3    85          
2006-04-19 12   13.7   142.7     972    2    70          
2006-04-19 12   13.7   142.7     972    2    70          
2006-04-19 12   13.7   142.7     972    2    70          
2006-04-19 18   13.8   142.0     980    2    60          
2006-04-19 18   13.8   142.0     980    2    60          
2006-04-20 00   13.9   141.3     980    2    60          
2006-04-20 00   13.9   141.3     980    2    60          
2006-04-20 06   14.2   140.7     978    2    60          
2006-04-20 06   14.2   140.7     978    2    60          
2006-04-20 12   14.0   140.4     976    2    65          
2006-04-20 12   14.0   140.4     976    2    65          
2006-04-20 18   13.7   140.1     972    2    70          
2006-04-20 18   13.7   140.1     972    2    70          
2006-04-20 18   13.7   140.1     972    2    70          
2006-04-21 00   13.5   140.0     963    3    80          
2006-04-21 00   13.5   140.0     963    3    80          
2006-04-21 00   13.5   140.0     963    3    80          
2006-04-21 06   13.4   139.8     954    3    90          
2006-04-21 06   13.4   139.8     954    3    90          
2006-04-21 06   13.4   139.8     954    3    90          
2006-04-21 12   13.1   139.7     944    4   100          
2006-04-21 12   13.1   139.7     944    4   100          
2006-04-21 12   13.1   139.7     944    4   100          
2006-04-21 18   12.9   139.5     933    4   110          
2006-04-21 18   12.9   139.5     933    4   110          
2006-04-21 18   12.9   139.5     933    4   110          
2006-04-22 00   12.7   139.3     927    4   115          
2006-04-22 00   12.7   139.3     927    4   115          
2006-04-22 00   12.7   139.3     927    4   115          
2006-04-22 06   12.5   139.1     916    5   125          
2006-04-22 06   12.5   139.1     916    5   125          
2006-04-22 06   12.5   139.1     916    5   125          
2006-04-22 12   12.1   138.7     916    5   125          
2006-04-22 12   12.1   138.7     916    5   125          
2006-04-22 12   12.1   138.7     916    5   125          
2006-04-22 18   11.7   138.4     926    5   130          
2006-04-22 18   11.7   138.4     926    5   130          
2006-04-22 18   11.7   138.4     926    5   130          
2006-04-23 00   11.4   138.0     898    5   140          
2006-04-23 00   11.4   138.0     898    5   140          
2006-04-23 00   11.4   138.0     898    5   140          
2006-04-23 06   11.4   137.4     911    5   150          
2006-04-23 06   11.4   137.4     911    5   150          
2006-04-23 06   11.4   137.4     911    5   150          
2006-04-23 12   11.3   136.6     907    5   155          
2006-04-23 12   11.3   136.6     907    5   155          
2006-04-23 12   11.3   136.6     907    5   155          
2006-04-23 18   11.3   135.8     879    5   155          
2006-04-23 18   11.3   135.8     879    5   155          
2006-04-23 18   11.3   135.8     879    5   155          
2006-04-24 00   11.5   135.1     879    5   155          
2006-04-24 00   11.5   135.1     879    5   155          
2006-04-24 00   11.5   135.1     879    5   155          
2006-04-24 06   11.7   134.4     907    5   155          
2006-04-24 06   11.7   134.4     907    5   155          
2006-04-24 06   11.7   134.4     907    5   155          
2006-04-24 12   12.1   133.7     937    4   115          
2006-04-24 12   12.1   133.7     937    4   115          
2006-04-24 12   12.1   133.7     937    4   115          
2006-04-24 18   12.6   132.7     982    2    55          
2006-04-25 00   12.5   131.6     994    1    40          
2006-04-25 06   12.2   130.7    1000         30          
2006-04-25 12   12.4   130.2    1000         30          
2006-04-25 18   12.9   130.0    1000         30          
2006-04-26 00   13.3   129.9    1002         25          
2006-04-26 06   13.6   129.6    1002         25          
2006-04-26 12   13.9   129.7    1002         25          
2006-04-26 18   14.1   129.9    1002         25          
Winds are 1-min average.

Tropical cyclone tracks developed by Michael Bath using data from the Joint Typhoon Warning Centre Best Tracks and Google Maps.


[Australian Severe Weather index] [Copyright Notice] [Email Contacts] [Search This Site] [Privacy Policy]
Document: tropical_cyclone_monica.htm Updated: 28 June 2017